createdAt,value
2022-08-03T00:00:41.527Z,16.77
2022-08-03T00:03:10.544Z,16.74
2022-08-03T00:05:39.960Z,16.74
2022-08-03T00:08:09.160Z,16.75
2022-08-03T00:10:38.595Z,16.75
2022-08-03T00:13:07.280Z,16.77
2022-08-03T00:15:36.075Z,16.77
2022-08-03T00:18:05.065Z,16.75
2022-08-03T00:20:33.854Z,16.68
2022-08-03T00:23:02.711Z,16.67
2022-08-03T00:25:31.480Z,16.60
2022-08-03T00:28:00.329Z,16.60
2022-08-03T00:30:30.908Z,16.60
2022-08-03T00:33:00.166Z,16.56
2022-08-03T00:35:50.351Z,16.55
2022-08-03T00:38:20.311Z,16.53
2022-08-03T00:40:49.201Z,16.51
2022-08-03T00:43:19.030Z,16.51
2022-08-03T00:45:48.379Z,16.51
2022-08-03T00:48:33.109Z,16.47
2022-08-03T00:51:02.779Z,16.43
2022-08-03T00:53:31.954Z,16.40
2022-08-03T00:56:00.833Z,16.37
2022-08-03T00:58:29.720Z,16.34
2022-08-03T01:00:59.135Z,16.31
2022-08-03T01:03:27.970Z,16.29
2022-08-03T01:06:13.827Z,16.28
2022-08-03T01:09:35.739Z,16.28
2022-08-03T01:12:15.892Z,16.27
2022-08-03T01:15:29.297Z,16.27
2022-08-03T01:18:22.822Z,16.26
2022-08-03T01:20:56.922Z,16.29
2022-08-03T01:24:26.944Z,16.31
2022-08-03T01:27:10.160Z,16.37
2022-08-03T01:29:57.386Z,16.39
2022-08-03T01:33:00.249Z,16.37
2022-08-03T01:35:42.504Z,16.34
2022-08-03T01:38:16.209Z,16.32
2022-08-03T01:40:47.155Z,16.29
2022-08-03T01:44:26.443Z,16.22
2022-08-03T01:46:08.332Z,16.16
2022-08-03T01:48:39.609Z,16.09
2022-08-03T01:51:09.310Z,16.08
2022-08-03T01:53:43.103Z,16.07
2022-08-03T01:56:13.216Z,16.06
2022-08-03T01:58:42.809Z,16.07
2022-08-03T02:01:13.915Z,16.08
2022-08-03T02:03:59.972Z,16.10
2022-08-03T02:06:59.763Z,16.10
2022-08-03T02:09:23.816Z,16.06
2022-08-03T02:11:53.181Z,16.05
2022-08-03T02:14:23.048Z,16.00
2022-08-03T02:16:52.136Z,15.98
2022-08-03T02:19:20.888Z,15.95
2022-08-03T02:21:56.335Z,15.93
2022-08-03T02:24:31.444Z,15.90
2022-08-03T02:27:01.073Z,15.89
2022-08-03T02:29:40.352Z,15.89
2022-08-03T02:32:13.756Z,15.91
2022-08-03T02:34:45.585Z,15.91
2022-08-03T02:37:19.435Z,15.91
2022-08-03T02:39:49.882Z,15.94
2022-08-03T02:42:19.963Z,15.96
2022-08-03T02:44:51.863Z,15.97
2022-08-03T02:47:21.736Z,16.00
2022-08-03T02:49:52.268Z,16.01
2022-08-03T02:52:24.262Z,16.03
2022-08-03T02:54:57.329Z,16.05
2022-08-03T02:57:31.018Z,16.06
2022-08-03T03:00:00.577Z,16.08
2022-08-03T03:02:29.625Z,16.07
2022-08-03T03:05:53.533Z,16.07
2022-08-03T03:07:51.685Z,16.08
2022-08-03T03:10:26.451Z,16.08
2022-08-03T03:12:58.347Z,16.07
2022-08-03T03:15:28.915Z,16.04
2022-08-03T03:17:58.424Z,16.08
2022-08-03T03:20:29.320Z,16.11
2022-08-03T03:23:01.245Z,16.15
2022-08-03T03:25:33.968Z,16.18
2022-08-03T03:28:03.602Z,16.19
2022-08-03T03:30:35.349Z,16.17
2022-08-03T03:33:04.421Z,16.17
2022-08-03T03:35:39.040Z,16.19
2022-08-03T03:38:08.216Z,16.19
2022-08-03T03:40:38.488Z,16.20
2022-08-03T03:43:12.222Z,16.22
2022-08-03T03:45:44.207Z,16.28
2022-08-03T03:48:13.139Z,16.32
2022-08-03T03:50:42.065Z,16.38
2022-08-03T03:53:13.999Z,16.43
2022-08-03T03:55:58.975Z,16.48
2022-08-03T03:58:33.054Z,16.55
2022-08-03T04:01:02.022Z,16.62
2022-08-03T04:03:31.138Z,16.69
2022-08-03T04:06:18.609Z,16.75
2022-08-03T04:09:06.318Z,16.83
2022-08-03T04:11:48.378Z,16.90
2022-08-03T04:14:36.509Z,16.98
2022-08-03T04:17:10.133Z,17.11
2022-08-03T04:19:51.634Z,17.22
2022-08-03T04:22:26.114Z,17.34
2022-08-03T04:25:01.814Z,17.45
2022-08-03T04:27:36.971Z,17.56
2022-08-03T04:30:07.550Z,17.67
2022-08-03T04:32:37.810Z,17.78
2022-08-03T04:35:07.921Z,17.89
2022-08-03T04:37:46.263Z,18.03
2022-08-03T04:40:31.015Z,18.23
2022-08-03T04:43:00.188Z,18.29
2022-08-03T04:45:30.885Z,18.39
2022-08-03T04:48:00.160Z,18.44
2022-08-03T04:50:31.755Z,18.46
2022-08-03T04:53:07.292Z,18.48
2022-08-03T04:55:36.802Z,18.50
2022-08-03T04:58:06.523Z,18.53
2022-08-03T05:00:35.537Z,18.60
2022-08-03T05:03:04.263Z,18.63
2022-08-03T05:05:50.766Z,18.69
2022-08-03T05:08:27.761Z,18.74
2022-08-03T05:10:59.397Z,18.81
2022-08-03T05:13:28.487Z,18.88
2022-08-03T05:15:57.189Z,18.92
2022-08-03T05:18:25.961Z,18.98
2022-08-03T05:20:54.653Z,19.03
2022-08-03T05:23:23.388Z,19.07
2022-08-03T05:25:52.400Z,19.16
2022-08-03T05:28:22.658Z,19.20
2022-08-03T05:30:51.347Z,19.26
2022-08-03T05:33:20.342Z,19.30
2022-08-03T05:35:57.397Z,19.35
2022-08-03T05:38:34.932Z,19.39
2022-08-03T05:41:23.722Z,19.44
2022-08-03T05:43:55.291Z,19.47
2022-08-03T05:46:24.345Z,19.53
2022-08-03T05:48:53.310Z,19.61
2022-08-03T05:51:22.132Z,19.69
2022-08-03T05:53:50.941Z,19.76
2022-08-03T05:56:25.370Z,19.81
2022-08-03T05:58:54.336Z,19.85
2022-08-03T06:01:23.375Z,19.89
2022-08-03T06:03:52.453Z,19.94
2022-08-03T06:06:21.119Z,19.98
2022-08-03T06:08:50.019Z,20.08
2022-08-03T06:11:18.984Z,20.16
2022-08-03T06:13:47.909Z,20.23
2022-08-03T06:16:16.756Z,20.31
2022-08-03T06:18:46.277Z,20.38
2022-08-03T06:21:16.467Z,20.42
2022-08-03T06:23:55.037Z,20.48
2022-08-03T06:26:27.830Z,20.55
2022-08-03T06:28:56.812Z,20.64
2022-08-03T06:31:32.949Z,20.73
2022-08-03T06:34:33.715Z,20.81
2022-08-03T06:36:58.565Z,20.91
2022-08-03T06:39:30.764Z,20.99
2022-08-03T06:41:59.390Z,21.04
2022-08-03T06:44:28.175Z,21.03
2022-08-03T06:46:57.258Z,21.07
2022-08-03T06:49:26.733Z,21.12
2022-08-03T06:52:04.327Z,21.18
2022-08-03T06:54:36.103Z,21.24
2022-08-03T06:57:07.083Z,21.26
2022-08-03T07:00:09.608Z,21.29
2022-08-03T07:02:24.960Z,21.37
2022-08-03T07:04:57.810Z,21.52
2022-08-03T07:07:26.623Z,21.58
2022-08-03T07:09:57.790Z,21.70
2022-08-03T07:12:29.267Z,21.78
2022-08-03T07:15:01.267Z,21.86
2022-08-03T07:17:33.664Z,21.87
2022-08-03T07:20:06.805Z,22.00
2022-08-03T07:22:36.021Z,22.08
2022-08-03T07:25:05.439Z,22.14
2022-08-03T07:27:34.745Z,22.14
2022-08-03T07:30:07.059Z,22.14
2022-08-03T07:32:37.643Z,22.17
2022-08-03T07:35:24.616Z,22.22
2022-08-03T07:37:55.214Z,22.31
2022-08-03T07:40:26.980Z,22.42
2022-08-03T07:43:02.510Z,22.58
2022-08-03T07:45:34.566Z,22.75
2022-08-03T07:48:05.518Z,22.84
2022-08-03T07:50:37.751Z,22.92
2022-08-03T07:53:06.904Z,23.01
2022-08-03T07:55:35.991Z,23.08
2022-08-03T07:58:10.131Z,23.15
2022-08-03T08:00:39.356Z,23.17
2022-08-03T08:03:09.015Z,23.24
2022-08-03T08:05:38.005Z,23.30
2022-08-03T08:08:07.413Z,23.32
2022-08-03T08:10:36.346Z,23.35
2022-08-03T08:13:09.387Z,23.35
2022-08-03T08:15:42.778Z,23.38
2022-08-03T08:18:13.663Z,23.48
2022-08-03T08:20:42.799Z,23.55
2022-08-03T08:23:42.670Z,23.62
2022-08-03T08:26:01.895Z,23.68
2022-08-03T08:28:33.688Z,23.73
2022-08-03T08:31:03.117Z,23.78
2022-08-03T08:33:54.247Z,23.86
2022-08-03T08:36:21.685Z,23.84
2022-08-03T08:38:52.636Z,23.89
2022-08-03T08:41:21.853Z,23.98
2022-08-03T08:43:51.687Z,24.12
2022-08-03T08:46:23.477Z,24.23
2022-08-03T08:48:54.814Z,24.31
2022-08-03T08:51:50.981Z,24.42
2022-08-03T08:54:22.016Z,24.49
2022-08-03T08:56:54.149Z,24.59
2022-08-03T08:59:23.681Z,24.66
2022-08-03T09:01:59.210Z,24.72
2022-08-03T09:04:31.495Z,24.79
2022-08-03T09:07:19.148Z,24.82
2022-08-03T09:10:10.948Z,24.76
2022-08-03T09:12:44.968Z,24.82
2022-08-03T09:15:31.443Z,24.86
2022-08-03T09:18:03.355Z,24.90
2022-08-03T09:20:37.099Z,24.92
2022-08-03T09:23:59.747Z,24.93
2022-08-03T09:26:02.490Z,24.97
2022-08-03T09:28:59.824Z,24.96
2022-08-03T09:31:38.837Z,24.96
2022-08-03T09:34:19.588Z,25.00
2022-08-03T09:36:55.887Z,25.10
2022-08-03T09:39:41.421Z,25.24
2022-08-03T09:42:23.764Z,25.34
2022-08-03T09:44:53.317Z,25.38
2022-08-03T09:47:34.008Z,25.41
2022-08-03T09:50:08.646Z,25.48
2022-08-03T09:52:49.999Z,25.49
2022-08-03T09:56:32.891Z,25.51
2022-08-03T09:58:14.530Z,25.55
2022-08-03T10:01:05.464Z,25.55
2022-08-03T10:04:02.774Z,25.60
2022-08-03T10:06:29.145Z,25.67
2022-08-03T10:09:17.380Z,25.66
2022-08-03T10:11:47.144Z,25.75
2022-08-03T10:14:23.186Z,25.76
2022-08-03T10:16:51.913Z,25.68
2022-08-03T10:19:21.110Z,25.61
2022-08-03T10:21:57.727Z,25.64
2022-08-03T10:24:30.705Z,25.78
2022-08-03T10:27:07.361Z,25.86
2022-08-03T10:29:45.189Z,25.98
2022-08-03T10:32:22.940Z,26.07
2022-08-03T10:35:00.183Z,26.06
2022-08-03T10:37:31.335Z,26.05
2022-08-03T10:40:01.445Z,26.19
2022-08-03T10:42:35.001Z,26.28
2022-08-03T10:45:08.867Z,26.16
2022-08-03T10:47:38.047Z,26.12
2022-08-03T10:50:08.094Z,26.16
2022-08-03T10:52:45.381Z,26.29
2022-08-03T10:55:57.655Z,26.44
2022-08-03T10:58:37.808Z,26.61
2022-08-03T11:02:00.395Z,26.74
2022-08-03T11:04:32.972Z,26.72
2022-08-03T11:07:19.656Z,26.58
2022-08-03T11:09:58.527Z,26.51
2022-08-03T11:12:31.094Z,26.50
2022-08-03T11:15:07.568Z,26.59
2022-08-03T11:17:46.548Z,26.64
2022-08-03T11:21:02.520Z,26.56
2022-08-03T11:24:04.442Z,26.53
2022-08-03T11:26:35.507Z,26.57
2022-08-03T11:29:31.016Z,26.57
2022-08-03T11:32:00.004Z,26.65
2022-08-03T11:34:28.814Z,26.66
2022-08-03T11:37:27.477Z,26.70
2022-08-03T11:39:59.112Z,26.77
2022-08-03T11:42:29.424Z,26.74
2022-08-03T11:45:00.500Z,26.74
2022-08-03T11:47:30.289Z,26.72
2022-08-03T11:50:02.414Z,26.69
2022-08-03T11:52:40.583Z,26.78
2022-08-03T11:55:12.231Z,26.94
2022-08-03T11:59:00.985Z,27.06
2022-08-03T12:00:33.666Z,27.22
2022-08-03T12:03:12.520Z,27.24
2022-08-03T12:05:51.272Z,27.20
2022-08-03T12:08:27.385Z,27.12
2022-08-03T12:11:00.066Z,27.04
2022-08-03T12:14:48.375Z,26.98
2022-08-03T12:16:49.935Z,26.93
2022-08-03T12:19:19.135Z,26.86
2022-08-03T12:21:57.190Z,26.95
2022-08-03T12:24:29.873Z,27.17
2022-08-03T12:26:59.991Z,27.19
2022-08-03T12:29:29.324Z,27.17
2022-08-03T12:31:58.216Z,27.31
2022-08-03T12:34:49.483Z,27.48
2022-08-03T12:37:23.689Z,27.60
2022-08-03T12:40:02.724Z,27.74
2022-08-03T12:42:37.647Z,27.86
2022-08-03T12:45:28.769Z,27.84
2022-08-03T12:48:00.685Z,27.59
2022-08-03T12:50:38.173Z,27.44
2022-08-03T12:53:09.823Z,27.40
2022-08-03T12:55:57.856Z,27.32
2022-08-03T12:58:36.207Z,27.39
2022-08-03T13:01:09.772Z,27.45
2022-08-03T13:03:52.968Z,27.07
2022-08-03T13:06:26.763Z,26.34
2022-08-03T13:09:08.647Z,25.75
2022-08-03T13:11:55.644Z,25.40
2022-08-03T13:14:26.506Z,25.22
2022-08-03T13:16:55.442Z,25.15
2022-08-03T13:19:24.388Z,25.17
2022-08-03T13:22:04.191Z,25.12
2022-08-03T13:24:33.949Z,25.11
2022-08-03T13:28:01.232Z,25.16
2022-08-03T13:29:55.393Z,25.28
2022-08-03T13:32:24.539Z,25.39
2022-08-03T13:34:53.414Z,25.54
2022-08-03T13:37:22.501Z,25.65
2022-08-03T13:39:59.482Z,25.74
2022-08-03T13:42:32.479Z,25.82
2022-08-03T13:45:02.105Z,25.86
2022-08-03T13:47:31.090Z,25.80
2022-08-03T13:50:02.780Z,25.86
2022-08-03T13:52:35.138Z,25.97
2022-08-03T13:55:08.632Z,25.97
2022-08-03T13:58:02.350Z,25.98
2022-08-03T14:00:29.432Z,25.98
2022-08-03T14:03:12.852Z,26.01
2022-08-03T14:05:44.642Z,26.04
2022-08-03T14:08:13.855Z,26.10
2022-08-03T14:10:45.371Z,26.25
2022-08-03T14:13:17.536Z,26.32
2022-08-03T14:15:49.842Z,26.41
2022-08-03T14:18:28.270Z,26.48
2022-08-03T14:21:05.002Z,26.55
2022-08-03T14:23:38.150Z,26.57
2022-08-03T14:26:07.777Z,26.60
2022-08-03T14:28:36.809Z,26.57
2022-08-03T14:31:08.332Z,26.63
2022-08-03T14:33:44.484Z,26.58
2022-08-03T14:36:13.459Z,26.53
2022-08-03T14:38:42.246Z,26.59
2022-08-03T14:41:12.052Z,26.60
2022-08-03T14:44:02.212Z,26.62
2022-08-03T14:46:32.684Z,26.59
2022-08-03T14:50:30.698Z,26.66
2022-08-03T14:51:54.000Z,26.68
2022-08-03T14:54:23.763Z,26.56
2022-08-03T14:56:52.733Z,26.48
2022-08-03T14:59:21.487Z,26.50
2022-08-03T15:02:04.342Z,26.53
2022-08-03T15:04:36.731Z,26.59
2022-08-03T15:07:05.719Z,26.66
2022-08-03T15:09:34.702Z,26.71
2022-08-03T15:12:04.283Z,26.70
2022-08-03T15:14:34.852Z,26.60
2022-08-03T15:17:05.204Z,26.51
2022-08-03T15:20:02.752Z,26.51
2022-08-03T15:22:24.876Z,26.52
2022-08-03T15:24:56.522Z,26.53
2022-08-03T15:27:25.510Z,26.45
2022-08-03T15:30:07.212Z,26.41
2022-08-03T15:32:39.290Z,26.38
2022-08-03T15:35:08.384Z,26.38
2022-08-03T15:37:37.165Z,26.32
2022-08-03T15:40:06.720Z,26.26
2022-08-03T15:42:35.534Z,26.25
2022-08-03T15:45:04.824Z,26.16
2022-08-03T15:47:33.723Z,26.16
2022-08-03T15:50:06.534Z,26.18
2022-08-03T15:52:38.567Z,26.15
2022-08-03T15:55:08.153Z,26.07
2022-08-03T15:59:10.429Z,26.08
2022-08-03T16:00:33.322Z,26.06
2022-08-03T16:03:03.148Z,26.03
2022-08-03T16:05:32.461Z,26.01
2022-08-03T16:08:03.431Z,25.98
2022-08-03T16:10:33.668Z,25.94
2022-08-03T16:13:02.509Z,25.87
2022-08-03T16:15:31.437Z,25.84
2022-08-03T16:18:00.246Z,25.82
2022-08-03T16:20:34.033Z,25.78
2022-08-03T16:23:10.925Z,25.75
2022-08-03T16:25:42.745Z,25.66
2022-08-03T16:28:14.663Z,25.61
2022-08-03T16:30:45.544Z,25.55
2022-08-03T16:33:17.348Z,25.51
2022-08-03T16:35:49.780Z,25.44
2022-08-03T16:38:19.537Z,25.39
2022-08-03T16:40:52.295Z,25.35
2022-08-03T16:43:25.140Z,25.29
2022-08-03T16:45:53.840Z,25.26
2022-08-03T16:48:22.599Z,25.22
2022-08-03T16:50:51.547Z,25.18
2022-08-03T16:53:33.763Z,25.13
2022-08-03T16:56:10.805Z,25.11
2022-08-03T16:58:42.442Z,25.08
2022-08-03T17:01:22.230Z,25.04
2022-08-03T17:04:01.680Z,25.01
2022-08-03T17:06:37.254Z,24.97
2022-08-03T17:09:15.626Z,24.92
2022-08-03T17:11:49.920Z,24.89
2022-08-03T17:14:28.315Z,24.86
2022-08-03T17:17:03.708Z,24.82
2022-08-03T17:19:35.193Z,24.78
2022-08-03T17:22:20.220Z,24.73
2022-08-03T17:24:54.135Z,24.69
2022-08-03T17:28:48.217Z,24.64
2022-08-03T17:30:20.670Z,24.59
2022-08-03T17:32:56.816Z,24.54
2022-08-03T17:35:36.450Z,24.48
2022-08-03T17:38:10.432Z,24.41
2022-08-03T17:40:48.053Z,24.34
2022-08-03T17:44:13.453Z,24.25
2022-08-03T17:46:10.770Z,24.17
2022-08-03T17:48:42.169Z,24.09
2022-08-03T17:51:24.260Z,24.04
2022-08-03T17:54:18.802Z,23.96
2022-08-03T17:57:22.477Z,23.89
2022-08-03T18:00:29.512Z,23.85
2022-08-03T18:03:20.778Z,23.79
2022-08-03T18:06:11.106Z,23.73
2022-08-03T18:08:51.800Z,23.65
2022-08-03T18:11:35.782Z,23.59
2022-08-03T18:14:19.905Z,23.54
2022-08-03T18:16:58.318Z,23.47
2022-08-03T18:20:02.659Z,23.41
2022-08-03T18:22:21.736Z,23.32
2022-08-03T18:24:56.225Z,23.24
2022-08-03T18:27:25.246Z,23.18
2022-08-03T18:30:15.511Z,23.09
2022-08-03T18:33:00.829Z,22.99
2022-08-03T18:35:52.955Z,22.88
2022-08-03T18:38:19.763Z,22.77
2022-08-03T18:40:52.887Z,22.68
2022-08-03T18:43:22.691Z,22.60
2022-08-03T18:46:42.842Z,22.51
2022-08-03T18:49:29.117Z,22.42
2022-08-03T18:52:17.970Z,22.35
2022-08-03T18:55:20.002Z,22.30
2022-08-03T18:58:02.313Z,22.22
2022-08-03T19:00:53.873Z,22.15
2022-08-03T19:03:41.543Z,22.08
2022-08-03T19:06:20.372Z,22.04
2022-08-03T19:09:24.672Z,21.99
2022-08-03T19:12:11.039Z,21.94
2022-08-03T19:14:53.833Z,21.89
2022-08-03T19:17:23.296Z,21.85
2022-08-03T19:19:58.902Z,21.83
2022-08-03T19:22:32.372Z,21.83
2022-08-03T19:25:02.836Z,21.84
2022-08-03T19:27:32.452Z,21.86
2022-08-03T19:30:14.106Z,21.89
2022-08-03T19:32:51.890Z,21.94
2022-08-03T19:35:51.410Z,21.98
2022-08-03T19:38:10.261Z,22.01
2022-08-03T19:40:42.356Z,22.05
2022-08-03T19:43:33.001Z,22.08
2022-08-03T19:46:11.715Z,22.12
2022-08-03T19:48:54.420Z,22.14
2022-08-03T19:51:58.472Z,22.16
2022-08-03T19:54:16.506Z,22.19
2022-08-03T19:56:48.361Z,22.22
2022-08-03T19:59:20.110Z,22.26
2022-08-03T20:01:50.255Z,22.29
2022-08-03T20:04:38.995Z,22.35
2022-08-03T20:07:08.057Z,22.39
2022-08-03T20:09:38.806Z,22.41
2022-08-03T20:12:13.774Z,22.43
2022-08-03T20:14:46.372Z,22.45
2022-08-03T20:17:21.048Z,22.46
2022-08-03T20:19:53.403Z,22.45
2022-08-03T20:22:28.657Z,22.45
2022-08-03T20:24:59.879Z,22.45
2022-08-03T20:27:31.663Z,22.43
2022-08-03T20:30:26.381Z,22.41
2022-08-03T20:32:56.497Z,22.39
2022-08-03T20:35:25.414Z,22.36
2022-08-03T20:37:56.654Z,22.31
2022-08-03T20:40:28.121Z,22.25
2022-08-03T20:42:58.117Z,22.18
2022-08-03T20:45:58.230Z,22.09
2022-08-03T20:48:18.301Z,21.95
2022-08-03T20:50:51.643Z,21.83
2022-08-03T20:53:57.491Z,21.71
2022-08-03T20:56:10.173Z,21.59
2022-08-03T20:58:41.598Z,21.47
2022-08-03T21:01:10.652Z,21.36
2022-08-03T21:03:40.798Z,21.28
2022-08-03T21:06:27.363Z,21.22
2022-08-03T21:09:05.508Z,21.18
2022-08-03T21:11:41.800Z,21.12
2022-08-03T21:14:19.800Z,21.08
2022-08-03T21:16:51.796Z,21.02
2022-08-03T21:19:23.156Z,21.00
2022-08-03T21:21:52.563Z,20.97
2022-08-03T21:24:24.394Z,20.92
2022-08-03T21:26:55.340Z,20.89
2022-08-03T21:29:24.459Z,20.87
2022-08-03T21:31:53.333Z,20.86
2022-08-03T21:34:22.182Z,20.85
2022-08-03T21:36:50.968Z,20.84
2022-08-03T21:39:19.885Z,20.84
2022-08-03T21:41:48.788Z,20.78
2022-08-03T21:44:28.722Z,20.69
2022-08-03T21:46:58.921Z,20.64
2022-08-03T21:50:04.389Z,20.59
2022-08-03T21:52:20.110Z,20.52
2022-08-03T21:54:51.056Z,20.49
2022-08-03T21:57:24.364Z,20.44
2022-08-03T22:00:11.389Z,20.40
2022-08-03T22:02:54.498Z,20.35
2022-08-03T22:05:42.713Z,20.31
2022-08-03T22:08:16.164Z,20.29
2022-08-03T22:10:45.582Z,20.29
2022-08-03T22:13:18.497Z,20.28
2022-08-03T22:15:49.501Z,20.24
2022-08-03T22:18:18.342Z,20.21
2022-08-03T22:20:51.992Z,20.18
2022-08-03T22:23:23.373Z,20.17
2022-08-03T22:25:53.925Z,20.18
2022-08-03T22:28:23.711Z,20.16
2022-08-03T22:30:52.577Z,20.13
2022-08-03T22:33:21.716Z,20.09
2022-08-03T22:35:52.221Z,20.07
2022-08-03T22:38:21.034Z,20.04
2022-08-03T22:40:52.759Z,20.03
2022-08-03T22:43:27.019Z,20.00
2022-08-03T22:46:09.921Z,19.97
2022-08-03T22:48:41.839Z,19.95
2022-08-03T22:51:10.799Z,19.94
2022-08-03T22:53:40.768Z,19.93
2022-08-03T22:56:09.628Z,19.91
2022-08-03T22:58:38.312Z,19.92
2022-08-03T23:01:10.252Z,19.90
2022-08-03T23:03:59.080Z,19.90
2022-08-03T23:06:41.444Z,19.89
2022-08-03T23:09:14.088Z,19.88
2022-08-03T23:11:46.092Z,19.86
2022-08-03T23:14:18.734Z,19.84
2022-08-03T23:16:48.070Z,19.80
2022-08-03T23:19:25.514Z,19.73
2022-08-03T23:22:02.226Z,19.66
2022-08-03T23:24:36.931Z,19.60
2022-08-03T23:27:08.903Z,19.57
2022-08-03T23:29:40.148Z,19.53
2022-08-03T23:32:10.764Z,19.50
2022-08-03T23:34:58.730Z,19.46
2022-08-03T23:37:27.882Z,19.42
2022-08-03T23:39:57.641Z,19.38
2022-08-03T23:42:26.665Z,19.36
2022-08-03T23:44:59.552Z,19.35
2022-08-03T23:47:47.270Z,19.35
2022-08-03T23:50:17.464Z,19.35
2022-08-03T23:53:22.965Z,19.34
2022-08-03T23:56:20.760Z,19.32
2022-08-03T23:59:30.820Z,19.30
